sensor_id;sensor_type;location;lat;lon;timestamp;temperature;humidity
15949;DHT22;14848;50.954;6.642;2023-04-06T00:08:59;1.80;99.90
15949;DHT22;14848;50.954;6.642;2023-04-06T00:11:26;1.90;99.90
15949;DHT22;14848;50.954;6.642;2023-04-06T00:13:52;1.90;99.90
15949;DHT22;14848;50.954;6.642;2023-04-06T00:16:19;2.00;99.90
15949;DHT22;14848;50.954;6.642;2023-04-06T00:18:45;2.00;99.90
15949;DHT22;14848;50.954;6.642;2023-04-06T00:21:12;2.10;99.90
15949;DHT22;14848;50.954;6.642;2023-04-06T00:43:12;1.90;99.90
15949;DHT22;14848;50.954;6.642;2023-04-06T00:45:39;1.90;99.90
15949;DHT22;14848;50.954;6.642;2023-04-06T00:52:58;1.80;99.90
15949;DHT22;14848;50.954;6.642;2023-04-06T00:55:24;2.00;99.90
15949;DHT22;14848;50.954;6.642;2023-04-06T00:57:50;2.00;99.90
15949;DHT22;14848;50.954;6.642;2023-04-06T01:00:16;1.70;99.90
15949;DHT22;14848;50.954;6.642;2023-04-06T01:02:42;1.90;99.90
15949;DHT22;14848;50.954;6.642;2023-04-06T01:05:10;1.70;99.90
15949;DHT22;14848;50.954;6.642;2023-04-06T01:12:29;1.70;99.90
15949;DHT22;14848;50.954;6.642;2023-04-06T01:14:54;1.70;99.90
15949;DHT22;14848;50.954;6.642;2023-04-06T01:22:18;1.50;99.90
15949;DHT22;14848;50.954;6.642;2023-04-06T01:27:10;1.40;99.90
15949;DHT22;14848;50.954;6.642;2023-04-06T01:29:36;1.40;99.90
15949;DHT22;14848;50.954;6.642;2023-04-06T01:36:54;1.40;99.90
15949;DHT22;14848;50.954;6.642;2023-04-06T01:39:20;1.60;99.90
15949;DHT22;14848;50.954;6.642;2023-04-06T01:51:31;1.50;99.90
15949;DHT22;14848;50.954;6.642;2023-04-06T02:03:41;1.30;99.90
15949;DHT22;14848;50.954;6.642;2023-04-06T02:18:17;1.30;99.90
15949;DHT22;14848;50.954;6.642;2023-04-06T02:23:10;1.30;99.90
15949;DHT22;14848;50.954;6.642;2023-04-06T02:30:28;1.30;99.90
15949;DHT22;14848;50.954;6.642;2023-04-06T02:32:54;1.50;99.90
15949;DHT22;14848;50.954;6.642;2023-04-06T02:35:21;1.50;99.90
15949;DHT22;14848;50.954;6.642;2023-04-06T02:40:13;1.30;99.90
15949;DHT22;14848;50.954;6.642;2023-04-06T02:54:50;1.40;99.90
15949;DHT22;14848;50.954;6.642;2023-04-06T03:07:01;0.90;99.90
15949;DHT22;14848;50.954;6.642;2023-04-06T03:14:19;1.50;99.90
15949;DHT22;14848;50.954;6.642;2023-04-06T03:16:48;0.80;99.90
15949;DHT22;14848;50.954;6.642;2023-04-06T03:28:59;0.90;99.90
15949;DHT22;14848;50.954;6.642;2023-04-06T03:43:35;1.00;99.90
15949;DHT22;14848;50.954;6.642;2023-04-06T03:46:01;0.90;99.90
15949;DHT22;14848;50.954;6.642;2023-04-06T03:50:52;1.20;99.90
15949;DHT22;14848;50.954;6.642;2023-04-06T03:58:10;1.10;99.90
15949;DHT22;14848;50.954;6.642;2023-04-06T04:00:36;1.00;99.90
15949;DHT22;14848;50.954;6.642;2023-04-06T04:03:02;1.00;99.90
15949;DHT22;14848;50.954;6.642;2023-04-06T04:05:28;0.90;99.90
15949;DHT22;14848;50.954;6.642;2023-04-06T04:07:54;0.90;99.90
15949;DHT22;14848;50.954;6.642;2023-04-06T04:10:20;0.80;99.90
15949;DHT22;14848;50.954;6.642;2023-04-06T04:12:46;0.80;99.90
15949;DHT22;14848;50.954;6.642;2023-04-06T04:15:12;0.70;99.90
15949;DHT22;14848;50.954;6.642;2023-04-06T04:20:04;0.90;99.90
15949;DHT22;14848;50.954;6.642;2023-04-06T04:27:22;0.90;99.90
15949;DHT22;14848;50.954;6.642;2023-04-06T04:29:47;1.00;99.90
15949;DHT22;14848;50.954;6.642;2023-04-06T04:32:13;1.00;99.90
15949;DHT22;14848;50.954;6.642;2023-04-06T04:34:39;1.10;99.90
15949;DHT22;14848;50.954;6.642;2023-04-06T04:37:07;1.00;99.90
15949;DHT22;14848;50.954;6.642;2023-04-06T04:39:33;1.00;99.90
15949;DHT22;14848;50.954;6.642;2023-04-06T04:41:58;0.90;99.90
15949;DHT22;14848;50.954;6.642;2023-04-06T04:44:24;0.90;99.90
15949;DHT22;14848;50.954;6.642;2023-04-06T04:46:50;0.90;99.90
15949;DHT22;14848;50.954;6.642;2023-04-06T04:49:16;0.90;99.90
15949;DHT22;14848;50.954;6.642;2023-04-06T04:51:41;1.00;99.90
15949;DHT22;14848;50.954;6.642;2023-04-06T04:54:07;0.90;99.90
15949;DHT22;14848;50.954;6.642;2023-04-06T04:56:33;0.90;99.90
15949;DHT22;14848;50.954;6.642;2023-04-06T04:58:59;1.00;99.90
15949;DHT22;14848;50.954;6.642;2023-04-06T05:01:24;1.00;99.90
15949;DHT22;14848;50.954;6.642;2023-04-06T05:03:50;1.00;99.90
15949;DHT22;14848;50.954;6.642;2023-04-06T05:06:16;1.00;99.90
15949;DHT22;14848;50.954;6.642;2023-04-06T05:08:42;1.10;99.90
15949;DHT22;14848;50.954;6.642;2023-04-06T05:11:08;1.20;99.90
15949;DHT22;14848;50.954;6.642;2023-04-06T05:13:34;1.30;99.90
15949;DHT22;14848;50.954;6.642;2023-04-06T05:16:00;1.30;99.90
15949;DHT22;14848;50.954;6.642;2023-04-06T05:18:26;1.40;99.90
15949;DHT22;14848;50.954;6.642;2023-04-06T05:20:52;1.50;99.90
15949;DHT22;14848;50.954;6.642;2023-04-06T05:23:18;1.60;99.90
15949;DHT22;14848;50.954;6.642;2023-04-06T05:25:43;1.70;99.90
15949;DHT22;14848;50.954;6.642;2023-04-06T05:28:09;1.90;99.90
15949;DHT22;14848;50.954;6.642;2023-04-06T05:30:35;1.90;99.90
15949;DHT22;14848;50.954;6.642;2023-04-06T05:33:01;2.00;99.90
15949;DHT22;14848;50.954;6.642;2023-04-06T05:35:27;2.10;99.90
15949;DHT22;14848;50.954;6.642;2023-04-06T05:37:53;2.40;99.90
15949;DHT22;14848;50.954;6.642;2023-04-06T05:40:19;3.10;99.90
15949;DHT22;14848;50.954;6.642;2023-04-06T05:42:44;3.90;99.90
15949;DHT22;14848;50.954;6.642;2023-04-06T05:45:11;4.70;99.90
15949;DHT22;14848;50.954;6.642;2023-04-06T05:47:42;5.30;99.90
15949;DHT22;14848;50.954;6.642;2023-04-06T05:50:08;5.90;99.90
15949;DHT22;14848;50.954;6.642;2023-04-06T05:52:34;6.50;99.90
15949;DHT22;14848;50.954;6.642;2023-04-06T05:55:00;7.10;99.90
15949;DHT22;14848;50.954;6.642;2023-04-06T05:57:25;7.60;99.90
15949;DHT22;14848;50.954;6.642;2023-04-06T05:59:51;7.90;99.90
15949;DHT22;14848;50.954;6.642;2023-04-06T06:02:17;8.30;99.90
15949;DHT22;14848;50.954;6.642;2023-04-06T06:04:42;8.60;99.90
15949;DHT22;14848;50.954;6.642;2023-04-06T06:07:08;9.00;99.90
15949;DHT22;14848;50.954;6.642;2023-04-06T06:09:34;9.40;99.90
15949;DHT22;14848;50.954;6.642;2023-04-06T06:12:00;9.90;99.90
15949;DHT22;14848;50.954;6.642;2023-04-06T06:14:26;10.40;99.90
15949;DHT22;14848;50.954;6.642;2023-04-06T06:16:54;10.50;99.90
15949;DHT22;14848;50.954;6.642;2023-04-06T06:19:20;10.50;99.90
15949;DHT22;14848;50.954;6.642;2023-04-06T06:21:45;10.80;99.90
15949;DHT22;14848;50.954;6.642;2023-04-06T06:24:11;10.30;99.90
15949;DHT22;14848;50.954;6.642;2023-04-06T06:26:37;10.30;99.90
15949;DHT22;14848;50.954;6.642;2023-04-06T06:29:04;10.40;99.90
15949;DHT22;14848;50.954;6.642;2023-04-06T06:31:31;10.60;99.90
15949;DHT22;14848;50.954;6.642;2023-04-06T06:33:57;10.80;99.90
15949;DHT22;14848;50.954;6.642;2023-04-06T06:36:22;10.70;99.90
15949;DHT22;14848;50.954;6.642;2023-04-06T06:38:48;11.20;99.90
15949;DHT22;14848;50.954;6.642;2023-04-06T06:41:14;10.70;99.90
15949;DHT22;14848;50.954;6.642;2023-04-06T06:43:40;10.40;99.90
15949;DHT22;14848;50.954;6.642;2023-04-06T06:46:05;10.90;99.90
15949;DHT22;14848;50.954;6.642;2023-04-06T06:48:31;11.10;99.90
15949;DHT22;14848;50.954;6.642;2023-04-06T06:50:57;10.90;99.90
15949;DHT22;14848;50.954;6.642;2023-04-06T06:53:23;11.00;99.90
15949;DHT22;14848;50.954;6.642;2023-04-06T06:55:49;10.50;99.90
15949;DHT22;14848;50.954;6.642;2023-04-06T06:58:17;8.90;99.90
15949;DHT22;14848;50.954;6.642;2023-04-06T07:00:43;8.90;99.90
15949;DHT22;14848;50.954;6.642;2023-04-06T07:03:09;8.50;99.90
15949;DHT22;14848;50.954;6.642;2023-04-06T07:05:34;8.40;99.90
15949;DHT22;14848;50.954;6.642;2023-04-06T07:08:00;8.20;99.90
15949;DHT22;14848;50.954;6.642;2023-04-06T07:10:26;8.10;99.90
15949;DHT22;14848;50.954;6.642;2023-04-06T07:12:52;8.10;99.90
15949;DHT22;14848;50.954;6.642;2023-04-06T07:15:18;8.20;99.90
15949;DHT22;14848;50.954;6.642;2023-04-06T07:17:43;8.10;99.90
15949;DHT22;14848;50.954;6.642;2023-04-06T07:20:13;8.10;99.90
15949;DHT22;14848;50.954;6.642;2023-04-06T07:22:40;8.10;99.90
15949;DHT22;14848;50.954;6.642;2023-04-06T07:25:06;8.10;99.90
15949;DHT22;14848;50.954;6.642;2023-04-06T07:27:32;8.10;99.90
15949;DHT22;14848;50.954;6.642;2023-04-06T07:29:57;8.10;99.90
15949;DHT22;14848;50.954;6.642;2023-04-06T07:32:23;8.20;99.90
15949;DHT22;14848;50.954;6.642;2023-04-06T07:34:49;8.30;99.90
15949;DHT22;14848;50.954;6.642;2023-04-06T07:37:14;8.50;99.90
15949;DHT22;14848;50.954;6.642;2023-04-06T07:39:40;8.60;99.90
15949;DHT22;14848;50.954;6.642;2023-04-06T07:42:06;8.80;99.90
15949;DHT22;14848;50.954;6.642;2023-04-06T07:44:31;9.30;99.90
15949;DHT22;14848;50.954;6.642;2023-04-06T07:46:57;8.80;99.90
15949;DHT22;14848;50.954;6.642;2023-04-06T07:49:23;8.70;99.90
15949;DHT22;14848;50.954;6.642;2023-04-06T07:51:49;8.80;99.90
15949;DHT22;14848;50.954;6.642;2023-04-06T07:54:14;7.10;99.90
15949;DHT22;14848;50.954;6.642;2023-04-06T07:56:40;9.10;99.90
15949;DHT22;14848;50.954;6.642;2023-04-06T07:59:06;9.40;99.90
15949;DHT22;14848;50.954;6.642;2023-04-06T08:01:32;9.70;99.90
15949;DHT22;14848;50.954;6.642;2023-04-06T08:03:58;9.80;99.90
15949;DHT22;14848;50.954;6.642;2023-04-06T08:06:24;9.80;99.90
15949;DHT22;14848;50.954;6.642;2023-04-06T08:08:50;9.80;99.90
15949;DHT22;14848;50.954;6.642;2023-04-06T08:11:16;9.80;99.90
15949;DHT22;14848;50.954;6.642;2023-04-06T08:13:42;10.10;99.90
15949;DHT22;14848;50.954;6.642;2023-04-06T08:16:07;10.00;99.90
15949;DHT22;14848;50.954;6.642;2023-04-06T08:18:33;10.20;99.90
15949;DHT22;14848;50.954;6.642;2023-04-06T08:20:59;10.20;99.90
15949;DHT22;14848;50.954;6.642;2023-04-06T08:23:24;10.20;99.90
15949;DHT22;14848;50.954;6.642;2023-04-06T08:25:50;10.20;99.90
15949;DHT22;14848;50.954;6.642;2023-04-06T08:28:19;10.30;99.90
15949;DHT22;14848;50.954;6.642;2023-04-06T08:30:45;10.50;99.90
15949;DHT22;14848;50.954;6.642;2023-04-06T08:33:11;10.70;99.90
15949;DHT22;14848;50.954;6.642;2023-04-06T08:35:37;11.00;99.90
15949;DHT22;14848;50.954;6.642;2023-04-06T08:38:03;11.40;99.90
15949;DHT22;14848;50.954;6.642;2023-04-06T08:40:29;11.20;99.90
15949;DHT22;14848;50.954;6.642;2023-04-06T08:42:56;11.30;99.90
15949;DHT22;14848;50.954;6.642;2023-04-06T08:45:22;11.30;99.90
15949;DHT22;14848;50.954;6.642;2023-04-06T08:47:50;11.20;99.90
15949;DHT22;14848;50.954;6.642;2023-04-06T08:50:16;11.20;99.90
15949;DHT22;14848;50.954;6.642;2023-04-06T08:52:44;11.30;99.90
15949;DHT22;14848;50.954;6.642;2023-04-06T08:55:11;11.60;99.90
15949;DHT22;14848;50.954;6.642;2023-04-06T08:57:38;11.70;99.90
15949;DHT22;14848;50.954;6.642;2023-04-06T09:00:05;12.00;99.90
15949;DHT22;14848;50.954;6.642;2023-04-06T09:02:32;12.10;99.90
15949;DHT22;14848;50.954;6.642;2023-04-06T09:04:59;12.30;99.90
15949;DHT22;14848;50.954;6.642;2023-04-06T09:07:26;12.30;99.90
15949;DHT22;14848;50.954;6.642;2023-04-06T09:09:52;12.40;99.90
15949;DHT22;14848;50.954;6.642;2023-04-06T09:12:28;12.40;99.90
15949;DHT22;14848;50.954;6.642;2023-04-06T09:14:54;12.50;99.90
15949;DHT22;14848;50.954;6.642;2023-04-06T09:17:25;12.60;99.90
15949;DHT22;14848;50.954;6.642;2023-04-06T09:19:51;12.60;99.90
15949;DHT22;14848;50.954;6.642;2023-04-06T09:22:17;12.70;99.90
15949;DHT22;14848;50.954;6.642;2023-04-06T09:24:51;12.80;99.90
15949;DHT22;14848;50.954;6.642;2023-04-06T09:27:17;12.80;99.90
15949;DHT22;14848;50.954;6.642;2023-04-06T09:29:44;12.70;99.90
15949;DHT22;14848;50.954;6.642;2023-04-06T09:32:11;12.80;99.90
15949;DHT22;14848;50.954;6.642;2023-04-06T09:34:38;12.80;99.90
15949;DHT22;14848;50.954;6.642;2023-04-06T09:37:17;12.80;99.90
15949;DHT22;14848;50.954;6.642;2023-04-06T09:39:44;12.80;99.90
15949;DHT22;14848;50.954;6.642;2023-04-06T09:42:22;13.00;99.90
15949;DHT22;14848;50.954;6.642;2023-04-06T09:44:48;12.90;99.90
15949;DHT22;14848;50.954;6.642;2023-04-06T09:47:16;13.00;99.90
15949;DHT22;14848;50.954;6.642;2023-04-06T09:49:43;13.20;99.90
15949;DHT22;14848;50.954;6.642;2023-04-06T09:52:11;15.00;99.90
15949;DHT22;14848;50.954;6.642;2023-04-06T09:54:38;13.40;99.90
15949;DHT22;14848;50.954;6.642;2023-04-06T09:59:48;13.60;99.90
15949;DHT22;14848;50.954;6.642;2023-04-06T10:04:56;13.70;99.90
15949;DHT22;14848;50.954;6.642;2023-04-06T10:07:24;13.90;99.90
15949;DHT22;14848;50.954;6.642;2023-04-06T10:09:53;14.00;99.90
15949;DHT22;14848;50.954;6.642;2023-04-06T10:12:19;14.20;99.90
15949;DHT22;14848;50.954;6.642;2023-04-06T10:14:45;14.10;99.90
15949;DHT22;14848;50.954;6.642;2023-04-06T10:17:11;14.00;99.90
15949;DHT22;14848;50.954;6.642;2023-04-06T10:19:50;14.20;99.90
15949;DHT22;14848;50.954;6.642;2023-04-06T10:22:43;14.20;99.90
15949;DHT22;14848;50.954;6.642;2023-04-06T10:25:09;14.20;99.90
15949;DHT22;14848;50.954;6.642;2023-04-06T10:27:35;14.30;99.90
15949;DHT22;14848;50.954;6.642;2023-04-06T10:30:03;14.20;99.90
15949;DHT22;14848;50.954;6.642;2023-04-06T10:32:37;14.20;99.90
15949;DHT22;14848;50.954;6.642;2023-04-06T10:35:20;14.30;99.90
15949;DHT22;14848;50.954;6.642;2023-04-06T10:38:00;14.30;99.90
15949;DHT22;14848;50.954;6.642;2023-04-06T10:40:27;14.40;99.90
15949;DHT22;14848;50.954;6.642;2023-04-06T10:42:54;14.40;99.90
15949;DHT22;14848;50.954;6.642;2023-04-06T10:45:25;14.20;99.90
15949;DHT22;14848;50.954;6.642;2023-04-06T10:47:54;14.10;99.90
15949;DHT22;14848;50.954;6.642;2023-04-06T10:50:21;14.20;99.90
15949;DHT22;14848;50.954;6.642;2023-04-06T10:53:02;14.20;99.90
15949;DHT22;14848;50.954;6.642;2023-04-06T10:55:28;14.30;99.90
15949;DHT22;14848;50.954;6.642;2023-04-06T10:57:54;14.40;99.90
15949;DHT22;14848;50.954;6.642;2023-04-06T11:00:20;14.40;99.90
15949;DHT22;14848;50.954;6.642;2023-04-06T11:02:46;14.50;99.90
15949;DHT22;14848;50.954;6.642;2023-04-06T11:05:14;14.50;99.90
15949;DHT22;14848;50.954;6.642;2023-04-06T11:07:41;14.10;99.90
15949;DHT22;14848;50.954;6.642;2023-04-06T11:10:10;14.10;99.90
15949;DHT22;14848;50.954;6.642;2023-04-06T11:12:35;14.20;99.90
15949;DHT22;14848;50.954;6.642;2023-04-06T11:15:03;14.10;99.90
15949;DHT22;14848;50.954;6.642;2023-04-06T11:17:35;14.30;99.90
15949;DHT22;14848;50.954;6.642;2023-04-06T11:20:03;14.20;99.90
15949;DHT22;14848;50.954;6.642;2023-04-06T11:22:30;14.40;99.90
15949;DHT22;14848;50.954;6.642;2023-04-06T11:25:08;14.50;99.90
15949;DHT22;14848;50.954;6.642;2023-04-06T11:27:34;14.30;99.90
15949;DHT22;14848;50.954;6.642;2023-04-06T11:30:01;14.40;99.90
15949;DHT22;14848;50.954;6.642;2023-04-06T11:32:28;14.30;99.90
15949;DHT22;14848;50.954;6.642;2023-04-06T11:34:53;14.40;99.90
15949;DHT22;14848;50.954;6.642;2023-04-06T11:37:19;15.60;99.90
15949;DHT22;14848;50.954;6.642;2023-04-06T11:39:49;14.40;99.90
15949;DHT22;14848;50.954;6.642;2023-04-06T11:42:26;14.50;99.90
15949;DHT22;14848;50.954;6.642;2023-04-06T11:44:54;14.60;99.90
15949;DHT22;14848;50.954;6.642;2023-04-06T11:47:20;14.50;99.90
15949;DHT22;14848;50.954;6.642;2023-04-06T11:49:52;14.50;99.90
15949;DHT22;14848;50.954;6.642;2023-04-06T11:52:20;14.60;99.90
15949;DHT22;14848;50.954;6.642;2023-04-06T11:54:47;14.60;99.90
15949;DHT22;14848;50.954;6.642;2023-04-06T11:57:13;14.40;99.90
15949;DHT22;14848;50.954;6.642;2023-04-06T11:59:40;14.20;99.90
15949;DHT22;14848;50.954;6.642;2023-04-06T12:02:05;14.30;99.90
15949;DHT22;14848;50.954;6.642;2023-04-06T12:04:31;14.40;99.90
15949;DHT22;14848;50.954;6.642;2023-04-06T12:06:57;14.50;99.90
15949;DHT22;14848;50.954;6.642;2023-04-06T12:09:23;14.40;99.90
15949;DHT22;14848;50.954;6.642;2023-04-06T12:11:49;14.20;99.90
15949;DHT22;14848;50.954;6.642;2023-04-06T12:14:15;14.30;99.90
15949;DHT22;14848;50.954;6.642;2023-04-06T12:16:41;14.30;99.90
15949;DHT22;14848;50.954;6.642;2023-04-06T12:19:07;14.30;99.90
15949;DHT22;14848;50.954;6.642;2023-04-06T12:21:34;13.90;99.90
15949;DHT22;14848;50.954;6.642;2023-04-06T12:24:01;13.80;99.90
15949;DHT22;14848;50.954;6.642;2023-04-06T12:26:27;13.70;99.90
15949;DHT22;14848;50.954;6.642;2023-04-06T12:28:53;13.80;99.90
15949;DHT22;14848;50.954;6.642;2023-04-06T12:31:21;13.90;99.90
15949;DHT22;14848;50.954;6.642;2023-04-06T12:33:49;13.90;99.90
15949;DHT22;14848;50.954;6.642;2023-04-06T12:36:16;13.90;99.90
15949;DHT22;14848;50.954;6.642;2023-04-06T12:38:44;13.90;99.90
15949;DHT22;14848;50.954;6.642;2023-04-06T12:41:11;13.90;99.90
15949;DHT22;14848;50.954;6.642;2023-04-06T12:43:37;13.80;99.90
15949;DHT22;14848;50.954;6.642;2023-04-06T12:46:03;13.90;99.90
15949;DHT22;14848;50.954;6.642;2023-04-06T12:48:29;13.80;99.90
15949;DHT22;14848;50.954;6.642;2023-04-06T12:50:58;13.80;99.90
15949;DHT22;14848;50.954;6.642;2023-04-06T12:53:24;13.70;99.90
15949;DHT22;14848;50.954;6.642;2023-04-06T12:55:50;13.60;99.90
15949;DHT22;14848;50.954;6.642;2023-04-06T12:58:15;13.40;99.90
15949;DHT22;14848;50.954;6.642;2023-04-06T13:00:42;13.30;99.90
15949;DHT22;14848;50.954;6.642;2023-04-06T13:03:08;13.40;99.90
15949;DHT22;14848;50.954;6.642;2023-04-06T13:05:34;13.20;99.90
15949;DHT22;14848;50.954;6.642;2023-04-06T13:08:00;13.10;99.90
15949;DHT22;14848;50.954;6.642;2023-04-06T13:10:26;13.10;99.90
15949;DHT22;14848;50.954;6.642;2023-04-06T13:12:52;13.10;99.90
15949;DHT22;14848;50.954;6.642;2023-04-06T13:15:17;13.20;99.90
15949;DHT22;14848;50.954;6.642;2023-04-06T13:17:43;13.20;99.90
15949;DHT22;14848;50.954;6.642;2023-04-06T13:20:09;13.20;99.90
15949;DHT22;14848;50.954;6.642;2023-04-06T13:22:35;13.30;99.90
15949;DHT22;14848;50.954;6.642;2023-04-06T13:25:01;13.20;99.90
15949;DHT22;14848;50.954;6.642;2023-04-06T13:27:26;13.00;99.90
15949;DHT22;14848;50.954;6.642;2023-04-06T13:29:53;13.00;99.90
15949;DHT22;14848;50.954;6.642;2023-04-06T13:32:20;12.80;99.90
15949;DHT22;14848;50.954;6.642;2023-04-06T13:34:46;12.70;99.90
15949;DHT22;14848;50.954;6.642;2023-04-06T13:37:13;12.50;99.90
15949;DHT22;14848;50.954;6.642;2023-04-06T13:39:39;12.20;99.90
15949;DHT22;14848;50.954;6.642;2023-04-06T13:42:04;12.00;99.90
15949;DHT22;14848;50.954;6.642;2023-04-06T13:44:32;11.90;99.90
15949;DHT22;14848;50.954;6.642;2023-04-06T13:46:58;11.70;99.90
15949;DHT22;14848;50.954;6.642;2023-04-06T13:49:24;11.60;99.90
15949;DHT22;14848;50.954;6.642;2023-04-06T13:51:50;11.50;99.90
15949;DHT22;14848;50.954;6.642;2023-04-06T13:54:16;11.40;99.90
15949;DHT22;14848;50.954;6.642;2023-04-06T13:56:42;11.30;99.90
15949;DHT22;14848;50.954;6.642;2023-04-06T13:59:07;11.20;99.90
15949;DHT22;14848;50.954;6.642;2023-04-06T14:01:33;10.90;99.90
15949;DHT22;14848;50.954;6.642;2023-04-06T14:03:59;10.80;99.90
15949;DHT22;14848;50.954;6.642;2023-04-06T14:06:24;10.70;99.90
15949;DHT22;14848;50.954;6.642;2023-04-06T14:08:50;10.50;99.90
15949;DHT22;14848;50.954;6.642;2023-04-06T14:13:43;10.30;99.90
15949;DHT22;14848;50.954;6.642;2023-04-06T14:16:08;10.20;99.90
15949;DHT22;14848;50.954;6.642;2023-04-06T14:18:35;10.20;99.90
15949;DHT22;14848;50.954;6.642;2023-04-06T14:23:28;10.10;99.90
15949;DHT22;14848;50.954;6.642;2023-04-06T14:26:04;10.10;99.90
15949;DHT22;14848;50.954;6.642;2023-04-06T14:28:34;10.10;99.90
15949;DHT22;14848;50.954;6.642;2023-04-06T14:31:00;10.00;99.90
15949;DHT22;14848;50.954;6.642;2023-04-06T14:33:28;9.90;99.90
15949;DHT22;14848;50.954;6.642;2023-04-06T14:35:55;9.90;99.90
15949;DHT22;14848;50.954;6.642;2023-04-06T14:38:21;9.80;99.90
15949;DHT22;14848;50.954;6.642;2023-04-06T14:40:47;9.80;99.90
15949;DHT22;14848;50.954;6.642;2023-04-06T14:43:13;9.80;99.90
15949;DHT22;14848;50.954;6.642;2023-04-06T14:45:38;9.70;99.90
15949;DHT22;14848;50.954;6.642;2023-04-06T14:48:05;9.50;99.90
15949;DHT22;14848;50.954;6.642;2023-04-06T14:50:32;9.60;99.90
15949;DHT22;14848;50.954;6.642;2023-04-06T14:52:59;9.60;99.90
15949;DHT22;14848;50.954;6.642;2023-04-06T14:55:26;9.50;99.90
15949;DHT22;14848;50.954;6.642;2023-04-06T14:57:51;9.50;99.90
15949;DHT22;14848;50.954;6.642;2023-04-06T15:00:17;9.40;99.90
15949;DHT22;14848;50.954;6.642;2023-04-06T15:02:43;9.40;99.90
15949;DHT22;14848;50.954;6.642;2023-04-06T15:05:09;9.40;99.90
15949;DHT22;14848;50.954;6.642;2023-04-06T15:07:34;9.40;99.90
15949;DHT22;14848;50.954;6.642;2023-04-06T15:10:00;9.50;99.90
15949;DHT22;14848;50.954;6.642;2023-04-06T15:12:26;9.50;99.90
15949;DHT22;14848;50.954;6.642;2023-04-06T15:14:52;9.50;99.90
15949;DHT22;14848;50.954;6.642;2023-04-06T15:17:17;9.40;99.90
15949;DHT22;14848;50.954;6.642;2023-04-06T15:19:43;9.40;99.90
15949;DHT22;14848;50.954;6.642;2023-04-06T15:22:08;9.40;99.90
15949;DHT22;14848;50.954;6.642;2023-04-06T15:24:36;9.40;99.90
15949;DHT22;14848;50.954;6.642;2023-04-06T15:27:02;9.30;99.90
15949;DHT22;14848;50.954;6.642;2023-04-06T15:29:29;9.20;99.90
15949;DHT22;14848;50.954;6.642;2023-04-06T15:31:55;9.10;99.90
15949;DHT22;14848;50.954;6.642;2023-04-06T15:34:21;9.00;99.90
15949;DHT22;14848;50.954;6.642;2023-04-06T15:36:46;9.10;99.90
15949;DHT22;14848;50.954;6.642;2023-04-06T15:39:12;8.90;99.90
15949;DHT22;14848;50.954;6.642;2023-04-06T15:41:39;8.90;99.90
15949;DHT22;14848;50.954;6.642;2023-04-06T15:44:04;8.80;99.90
15949;DHT22;14848;50.954;6.642;2023-04-06T15:46:30;8.70;99.90
15949;DHT22;14848;50.954;6.642;2023-04-06T15:48:56;8.70;99.90
15949;DHT22;14848;50.954;6.642;2023-04-06T15:51:22;9.30;99.90
15949;DHT22;14848;50.954;6.642;2023-04-06T15:53:48;8.60;99.90
15949;DHT22;14848;50.954;6.642;2023-04-06T15:56:14;8.60;99.90
15949;DHT22;14848;50.954;6.642;2023-04-06T15:58:40;8.60;99.90
15949;DHT22;14848;50.954;6.642;2023-04-06T16:01:16;8.60;99.90
15949;DHT22;14848;50.954;6.642;2023-04-06T16:03:42;8.50;99.90
15949;DHT22;14848;50.954;6.642;2023-04-06T16:06:08;8.50;99.90
15949;DHT22;14848;50.954;6.642;2023-04-06T16:08:34;8.50;99.90
15949;DHT22;14848;50.954;6.642;2023-04-06T16:11:01;8.40;99.90
15949;DHT22;14848;50.954;6.642;2023-04-06T16:13:26;8.40;99.90
15949;DHT22;14848;50.954;6.642;2023-04-06T16:15:52;8.30;99.90
15949;DHT22;14848;50.954;6.642;2023-04-06T16:18:18;8.20;99.90
15949;DHT22;14848;50.954;6.642;2023-04-06T16:20:44;8.30;99.90
15949;DHT22;14848;50.954;6.642;2023-04-06T16:23:10;8.30;99.90
15949;DHT22;14848;50.954;6.642;2023-04-06T16:25:37;8.20;99.90
15949;DHT22;14848;50.954;6.642;2023-04-06T16:28:03;8.40;99.90
15949;DHT22;14848;50.954;6.642;2023-04-06T16:30:29;8.20;99.90
15949;DHT22;14848;50.954;6.642;2023-04-06T16:32:56;8.20;99.90
15949;DHT22;14848;50.954;6.642;2023-04-06T16:35:22;8.20;99.90
15949;DHT22;14848;50.954;6.642;2023-04-06T16:37:48;8.20;99.90
15949;DHT22;14848;50.954;6.642;2023-04-06T16:40:14;8.20;99.90
15949;DHT22;14848;50.954;6.642;2023-04-06T16:42:43;8.20;99.90
15949;DHT22;14848;50.954;6.642;2023-04-06T16:45:11;8.20;99.90
15949;DHT22;14848;50.954;6.642;2023-04-06T16:47:37;8.20;99.90
15949;DHT22;14848;50.954;6.642;2023-04-06T16:50:04;8.10;99.90
15949;DHT22;14848;50.954;6.642;2023-04-06T16:52:30;8.10;99.90
15949;DHT22;14848;50.954;6.642;2023-04-06T16:54:56;8.10;99.90
15949;DHT22;14848;50.954;6.642;2023-04-06T16:57:22;8.00;99.90
15949;DHT22;14848;50.954;6.642;2023-04-06T16:59:53;8.10;99.90
15949;DHT22;14848;50.954;6.642;2023-04-06T17:02:19;8.00;99.90
15949;DHT22;14848;50.954;6.642;2023-04-06T17:04:45;8.00;99.90
15949;DHT22;14848;50.954;6.642;2023-04-06T17:07:10;8.00;99.90
15949;DHT22;14848;50.954;6.642;2023-04-06T17:09:36;8.00;99.90
15949;DHT22;14848;50.954;6.642;2023-04-06T17:12:02;8.00;99.90
15949;DHT22;14848;50.954;6.642;2023-04-06T17:14:28;8.00;99.90
15949;DHT22;14848;50.954;6.642;2023-04-06T17:16:54;8.00;99.90
15949;DHT22;14848;50.954;6.642;2023-04-06T17:19:20;8.00;99.90
15949;DHT22;14848;50.954;6.642;2023-04-06T17:21:46;8.00;99.90
15949;DHT22;14848;50.954;6.642;2023-04-06T17:24:12;8.00;99.90
15949;DHT22;14848;50.954;6.642;2023-04-06T17:26:38;8.00;99.90
15949;DHT22;14848;50.954;6.642;2023-04-06T17:29:05;8.00;99.90
15949;DHT22;14848;50.954;6.642;2023-04-06T17:31:30;8.00;99.90
15949;DHT22;14848;50.954;6.642;2023-04-06T17:33:56;8.00;99.90
15949;DHT22;14848;50.954;6.642;2023-04-06T17:36:22;8.60;99.90
15949;DHT22;14848;50.954;6.642;2023-04-06T17:38:48;10.00;99.90
15949;DHT22;14848;50.954;6.642;2023-04-06T17:41:14;10.70;99.90
15949;DHT22;14848;50.954;6.642;2023-04-06T17:43:41;11.50;99.90
15949;DHT22;14848;50.954;6.642;2023-04-06T17:46:07;11.50;99.90
15949;DHT22;14848;50.954;6.642;2023-04-06T17:48:33;10.90;99.90
15949;DHT22;14848;50.954;6.642;2023-04-06T17:50:58;10.90;99.90
15949;DHT22;14848;50.954;6.642;2023-04-06T17:53:24;10.80;99.90
15949;DHT22;14848;50.954;6.642;2023-04-06T17:55:50;11.20;99.90
15949;DHT22;14848;50.954;6.642;2023-04-06T17:58:16;11.60;99.90
15949;DHT22;14848;50.954;6.642;2023-04-06T18:00:41;11.40;99.90
15949;DHT22;14848;50.954;6.642;2023-04-06T18:03:07;11.70;99.90
15949;DHT22;14848;50.954;6.642;2023-04-06T18:05:32;11.20;99.90
15949;DHT22;14848;50.954;6.642;2023-04-06T18:07:58;11.10;99.90
15949;DHT22;14848;50.954;6.642;2023-04-06T18:10:24;11.10;99.90
15949;DHT22;14848;50.954;6.642;2023-04-06T18:12:50;10.60;99.90
15949;DHT22;14848;50.954;6.642;2023-04-06T18:15:16;10.50;99.90
15949;DHT22;14848;50.954;6.642;2023-04-06T18:17:42;10.20;99.90